createdAt,value
2019-05-11T00:00:40.890Z,8.20
2019-05-11T00:03:09.117Z,8.20
2019-05-11T00:05:37.330Z,8.20
2019-05-11T00:08:05.556Z,8.10
2019-05-11T00:10:33.892Z,8.10
2019-05-11T00:13:02.220Z,8.10
2019-05-11T00:15:30.549Z,8.00
2019-05-11T00:17:58.807Z,8.00
2019-05-11T00:20:26.993Z,8.00
2019-05-11T00:22:55.404Z,8.00
2019-05-11T00:25:23.643Z,8.00
2019-05-11T00:27:51.874Z,7.90
2019-05-11T00:30:20.120Z,7.90
2019-05-11T00:32:48.439Z,7.90
2019-05-11T00:35:16.710Z,7.90
2019-05-11T00:37:44.955Z,7.80
2019-05-11T00:40:14.977Z,7.80
2019-05-11T00:42:43.698Z,7.80
2019-05-11T00:45:11.923Z,7.70
2019-05-11T00:47:40.135Z,7.70
2019-05-11T00:50:08.539Z,7.70
2019-05-11T00:52:36.871Z,7.60
2019-05-11T00:55:06.231Z,7.70
2019-05-11T00:57:34.476Z,7.60
2019-05-11T01:00:02.681Z,7.60
2019-05-11T01:02:30.994Z,7.60
2019-05-11T01:04:59.256Z,7.50
2019-05-11T01:07:27.524Z,7.60
2019-05-11T01:09:55.743Z,7.50
2019-05-11T01:12:23.975Z,7.50
2019-05-11T01:14:52.300Z,7.50
2019-05-11T01:17:20.517Z,7.50
2019-05-11T01:19:48.730Z,7.40
2019-05-11T01:22:16.963Z,7.40
2019-05-11T01:24:45.263Z,7.40
2019-05-11T01:27:13.475Z,7.40
2019-05-11T01:29:41.702Z,7.40
2019-05-11T01:32:09.928Z,7.40
2019-05-11T01:34:38.159Z,7.30
2019-05-11T01:37:06.392Z,7.30
2019-05-11T01:39:34.609Z,7.30
2019-05-11T01:42:02.840Z,7.30
2019-05-11T01:44:31.056Z,7.30
2019-05-11T01:46:59.325Z,7.30
2019-05-11T01:49:27.545Z,7.20
2019-05-11T01:51:55.763Z,7.20
2019-05-11T01:54:23.978Z,7.20
2019-05-11T01:56:52.363Z,7.10
2019-05-11T01:59:20.610Z,7.10
2019-05-11T02:01:48.986Z,7.10
2019-05-11T02:04:17.270Z,7.10
2019-05-11T02:06:45.484Z,7.10
2019-05-11T02:09:13.736Z,7.10
2019-05-11T02:11:41.936Z,7.00
2019-05-11T02:14:10.307Z,7.10
2019-05-11T02:16:38.537Z,7.00
2019-05-11T02:19:06.763Z,7.00
2019-05-11T02:21:34.997Z,6.90
2019-05-11T02:24:03.244Z,7.00
2019-05-11T02:26:31.467Z,6.90
2019-05-11T02:28:59.684Z,6.90
2019-05-11T02:31:27.925Z,6.80
2019-05-11T02:33:56.153Z,6.90
2019-05-11T02:36:24.384Z,6.80
2019-05-11T02:38:52.648Z,6.80
2019-05-11T02:41:35.795Z,6.90
2019-05-11T02:43:50.831Z,6.90
2019-05-11T02:46:19.062Z,6.90
2019-05-11T02:48:47.274Z,6.90
2019-05-11T02:51:15.560Z,6.90
2019-05-11T02:53:44.250Z,6.90
2019-05-11T02:56:12.464Z,7.00
2019-05-11T02:58:41.661Z,7.00
2019-05-11T03:01:09.999Z,7.00
2019-05-11T03:03:38.302Z,6.90
2019-05-11T03:06:06.637Z,6.90
2019-05-11T03:08:35.031Z,6.90
2019-05-11T03:11:03.241Z,7.00
2019-05-11T03:13:31.465Z,7.00
2019-05-11T03:15:59.684Z,6.90
2019-05-11T03:18:28.271Z,7.00
2019-05-11T03:20:56.607Z,7.00
2019-05-11T03:23:24.842Z,7.00
2019-05-11T03:25:53.081Z,7.00
2019-05-11T03:28:21.317Z,7.00
2019-05-11T03:30:49.583Z,7.00
2019-05-11T03:33:17.981Z,7.00
2019-05-11T03:35:46.197Z,7.00
2019-05-11T03:38:14.408Z,7.00
2019-05-11T03:40:42.666Z,7.00
2019-05-11T03:43:10.870Z,7.00
2019-05-11T03:45:39.090Z,7.00
2019-05-11T03:48:07.828Z,6.90
2019-05-11T03:50:36.043Z,6.90
2019-05-11T03:53:04.272Z,6.90
2019-05-11T04:26:27.091Z,6.80
2019-05-11T04:28:55.316Z,6.80
2019-05-11T04:31:23.550Z,6.90
2019-05-11T04:33:51.816Z,6.90
2019-05-11T04:36:20.109Z,6.90
2019-05-11T04:38:48.338Z,6.90
2019-05-11T04:41:16.596Z,7.00
2019-05-11T04:43:44.898Z,7.00
2019-05-11T04:46:13.314Z,7.10
2019-05-11T04:48:41.540Z,7.10
2019-05-11T04:51:09.915Z,7.20
2019-05-11T04:53:38.379Z,7.20
2019-05-11T04:56:06.717Z,7.20
2019-05-11T04:58:35.100Z,7.30
2019-05-11T05:01:04.320Z,7.30
2019-05-11T05:03:40.995Z,7.40
2019-05-11T05:06:21.299Z,7.40
2019-05-11T05:08:32.444Z,7.50
2019-05-11T05:11:00.882Z,7.60
2019-05-11T05:13:31.461Z,7.60
2019-05-11T05:15:59.369Z,7.70
2019-05-11T05:18:27.639Z,7.80
2019-05-11T05:20:55.944Z,7.80
2019-05-11T05:23:24.202Z,7.70
2019-05-11T05:25:52.462Z,7.70
2019-05-11T05:28:20.755Z,7.70
2019-05-11T05:30:49.080Z,7.80
2019-05-11T05:33:17.563Z,7.80
2019-05-11T05:35:45.777Z,7.80
2019-05-11T05:38:14.008Z,7.90
2019-05-11T05:40:42.232Z,7.90
2019-05-11T05:43:25.236Z,7.90
2019-05-11T05:45:40.403Z,7.90
2019-05-11T05:48:08.652Z,8.00
2019-05-11T05:50:36.923Z,8.00
2019-05-11T05:53:05.483Z,8.00
2019-05-11T05:55:33.697Z,8.10
2019-05-11T05:58:02.306Z,8.10
2019-05-11T06:00:30.538Z,8.20
2019-05-11T06:02:58.875Z,8.20
2019-05-11T06:05:27.105Z,8.30
2019-05-11T06:07:55.355Z,8.30
2019-05-11T06:10:24.596Z,8.40
2019-05-11T06:12:52.835Z,8.40
2019-05-11T06:15:21.082Z,8.50
2019-05-11T06:17:49.319Z,8.50
2019-05-11T06:20:17.536Z,8.50
2019-05-11T06:22:45.749Z,8.50
2019-05-11T06:25:14.208Z,8.60
2019-05-11T06:27:42.547Z,8.60
2019-05-11T06:30:11.159Z,8.60
2019-05-11T06:32:39.463Z,8.70
2019-05-11T06:35:07.786Z,8.70
2019-05-11T06:37:36.006Z,8.70
2019-05-11T06:40:06.379Z,8.70
2019-05-11T06:42:34.658Z,8.80
2019-05-11T06:45:03.394Z,8.80
2019-05-11T06:47:31.588Z,8.80
2019-05-11T06:49:59.817Z,8.90
2019-05-11T06:52:28.084Z,8.90
2019-05-11T06:54:56.461Z,8.90
2019-05-11T06:57:24.797Z,8.90
2019-05-11T06:59:53.375Z,8.90
2019-05-11T07:02:21.724Z,9.00
2019-05-11T07:04:49.944Z,9.00
2019-05-11T07:07:18.168Z,9.00
2019-05-11T07:09:46.392Z,9.00
2019-05-11T07:12:14.653Z,9.10
2019-05-11T07:14:42.914Z,9.10
2019-05-11T07:17:11.345Z,9.10
2019-05-11T07:19:39.898Z,9.10
2019-05-11T07:22:08.180Z,9.10
2019-05-11T07:24:36.409Z,9.20
2019-05-11T07:27:04.672Z,9.20
2019-05-11T07:29:32.934Z,9.30
2019-05-11T07:32:09.879Z,9.30
2019-05-11T07:34:31.086Z,9.40
2019-05-11T07:36:59.343Z,9.40
2019-05-11T07:39:27.936Z,9.50
2019-05-11T07:41:58.450Z,9.50
2019-05-11T07:44:35.934Z,9.50
2019-05-11T07:46:58.573Z,9.50
2019-05-11T07:49:28.997Z,9.60
2019-05-11T07:51:58.584Z,9.60
2019-05-11T07:54:28.108Z,9.60
2019-05-11T07:56:58.385Z,9.70
2019-05-11T07:59:28.753Z,9.80
2019-05-11T08:01:58.338Z,9.90
2019-05-11T08:04:28.733Z,10.00
2019-05-11T08:06:58.421Z,10.10
2019-05-11T08:09:27.798Z,10.10
2019-05-11T08:11:58.465Z,10.20
2019-05-11T08:14:28.595Z,10.20
2019-05-11T08:16:59.171Z,10.20
2019-05-11T08:19:28.273Z,10.30
2019-05-11T08:21:58.239Z,10.30
2019-05-11T08:24:28.295Z,10.40
2019-05-11T08:26:58.203Z,10.50
2019-05-11T08:29:27.813Z,10.50
2019-05-11T08:31:57.922Z,10.60
2019-05-11T08:34:28.616Z,10.70
2019-05-11T08:36:58.530Z,10.70
2019-05-11T08:39:28.858Z,10.70
2019-05-11T08:41:58.899Z,10.80
2019-05-11T08:44:28.786Z,10.80
2019-05-11T08:46:58.175Z,10.80
2019-05-11T08:49:28.690Z,10.90
2019-05-11T08:51:57.885Z,10.90
2019-05-11T08:54:28.688Z,11.00
2019-05-11T08:56:58.543Z,11.00
2019-05-11T08:59:27.879Z,11.00
2019-05-11T09:01:58.543Z,11.00
2019-05-11T09:04:28.627Z,11.10
2019-05-11T09:06:58.453Z,11.20
2019-05-11T09:09:28.449Z,11.20
2019-05-11T09:11:58.855Z,11.20
2019-05-11T09:14:28.384Z,11.20
2019-05-11T09:16:57.891Z,11.30
2019-05-11T09:19:28.498Z,11.40
2019-05-11T09:21:58.807Z,11.40
2019-05-11T09:24:28.199Z,11.40
2019-05-11T09:26:58.647Z,11.50
2019-05-11T09:29:28.206Z,11.50
2019-05-11T09:31:58.305Z,11.60
2019-05-11T09:34:28.884Z,11.70
2019-05-11T09:36:58.612Z,11.70
2019-05-11T09:39:28.057Z,11.80
2019-05-11T09:41:58.495Z,11.80
2019-05-11T09:44:28.633Z,11.80
2019-05-11T09:46:59.927Z,11.80
2019-05-11T09:49:43.245Z,11.90
2019-05-11T09:51:58.744Z,11.90
2019-05-11T09:54:28.753Z,12.00
2019-05-11T09:56:57.842Z,12.00
2019-05-11T09:59:28.185Z,12.10
2019-05-11T10:01:58.247Z,12.20
2019-05-11T10:04:28.604Z,12.20
2019-05-11T10:06:58.376Z,12.30
2019-05-11T10:09:28.059Z,12.40
2019-05-11T10:11:58.284Z,12.40
2019-05-11T10:14:25.886Z,12.40
2019-05-11T10:16:54.130Z,12.50
2019-05-11T10:19:22.443Z,12.60
2019-05-11T10:21:50.668Z,12.60
2019-05-11T10:24:18.892Z,12.70
2019-05-11T10:26:48.706Z,12.70
2019-05-11T10:29:18.289Z,12.70
2019-05-11T10:31:48.056Z,12.80
2019-05-11T10:34:18.002Z,12.80
2019-05-11T10:36:48.472Z,12.90
2019-05-11T10:39:18.452Z,13.00
2019-05-11T10:41:47.965Z,13.00
2019-05-11T10:44:18.593Z,13.10
2019-05-11T10:46:48.214Z,13.20
2019-05-11T10:49:18.298Z,13.30
2019-05-11T10:51:48.457Z,13.30
2019-05-11T10:54:18.483Z,13.30
2019-05-11T10:56:48.178Z,13.30
2019-05-11T10:59:18.297Z,13.50
2019-05-11T11:01:48.229Z,13.50
2019-05-11T11:04:18.166Z,13.50
2019-05-11T11:06:48.353Z,13.60
2019-05-11T11:09:17.761Z,13.60
2019-05-11T11:11:46.039Z,13.60
2019-05-11T11:14:14.263Z,13.60
2019-05-11T11:16:43.044Z,13.70
2019-05-11T11:19:11.428Z,13.70
2019-05-11T11:21:39.650Z,13.90
2019-05-11T11:24:07.923Z,13.90
2019-05-11T11:26:37.950Z,13.90
2019-05-11T11:29:08.505Z,14.00
2019-05-11T11:31:38.013Z,14.10
2019-05-11T11:34:08.257Z,14.10
2019-05-11T11:36:37.592Z,14.10
2019-05-11T11:39:08.357Z,14.10
2019-05-11T11:41:37.924Z,14.20
2019-05-11T11:44:07.907Z,14.20
2019-05-11T11:46:50.353Z,14.20
2019-05-11T11:49:08.313Z,14.30
2019-05-11T11:51:37.845Z,14.30
2019-05-11T11:54:08.514Z,14.30
2019-05-11T11:56:37.951Z,14.30
2019-05-11T11:59:08.319Z,14.40
2019-05-11T12:01:38.525Z,14.40
2019-05-11T12:04:08.210Z,14.40
2019-05-11T12:06:38.374Z,14.50
2019-05-11T12:09:08.784Z,14.60
2019-05-11T12:11:38.025Z,14.60
2019-05-11T12:14:08.507Z,14.60
2019-05-11T12:16:38.610Z,14.70
2019-05-11T12:19:08.143Z,14.80
2019-05-11T12:21:37.981Z,14.80
2019-05-11T12:24:08.126Z,14.90
2019-05-11T12:26:38.658Z,15.00
2019-05-11T12:29:08.146Z,15.10
2019-05-11T12:31:37.978Z,15.00
2019-05-11T12:34:08.537Z,15.10
2019-05-11T12:36:38.498Z,15.20
2019-05-11T12:39:08.409Z,15.10
2019-05-11T12:41:38.687Z,15.10
2019-05-11T12:44:08.223Z,15.10
2019-05-11T12:46:39.362Z,15.10
2019-05-11T12:49:07.818Z,15.20
2019-05-11T12:51:38.268Z,15.20
2019-05-11T12:54:08.317Z,15.30
2019-05-11T12:56:38.373Z,15.40
2019-05-11T12:59:08.225Z,15.50
2019-05-11T13:01:38.239Z,15.50
2019-05-11T13:04:08.872Z,15.60
2019-05-11T13:06:38.485Z,15.70
2019-05-11T13:09:07.873Z,15.70
2019-05-11T13:11:37.980Z,15.70
2019-05-11T13:14:08.061Z,15.80
2019-05-11T13:16:37.818Z,15.90
2019-05-11T13:19:08.378Z,15.90
2019-05-11T13:21:38.301Z,16.00
2019-05-11T13:24:08.330Z,16.00
2019-05-11T13:26:38.019Z,16.10
2019-05-11T13:29:07.728Z,16.10
2019-05-11T13:31:38.236Z,16.10
2019-05-11T13:34:08.169Z,16.20
2019-05-11T13:36:38.195Z,16.30
2019-05-11T13:39:08.917Z,16.30
2019-05-11T13:41:38.296Z,16.40
2019-05-11T13:44:07.951Z,16.40
2019-05-11T13:46:38.660Z,16.50
2019-05-11T13:49:08.546Z,16.60
2019-05-11T13:51:38.792Z,16.60
2019-05-11T13:54:07.952Z,16.70
2019-05-11T13:56:37.969Z,16.60
2019-05-11T13:59:10.919Z,16.60
2019-05-11T14:01:38.580Z,16.70
2019-05-11T14:04:08.481Z,16.70
2019-05-11T14:06:37.791Z,16.60
2019-05-11T14:09:07.914Z,16.60
2019-05-11T14:11:36.132Z,16.60
2019-05-11T14:14:04.394Z,16.60
2019-05-11T14:16:32.663Z,16.60
2019-05-11T14:19:00.928Z,16.60
2019-05-11T14:21:29.330Z,16.60
2019-05-11T14:23:58.769Z,16.60
2019-05-11T14:26:28.067Z,16.70
2019-05-11T14:28:58.281Z,16.60
2019-05-11T14:31:27.928Z,16.60
2019-05-11T14:33:57.905Z,16.60
2019-05-11T14:36:28.204Z,16.60
2019-05-11T14:38:57.791Z,16.60
2019-05-11T14:41:28.420Z,16.60
2019-05-11T14:43:57.977Z,16.60
2019-05-11T14:46:27.898Z,16.60
2019-05-11T15:17:04.050Z,16.60
2019-05-11T15:19:32.249Z,16.60
2019-05-11T15:22:02.423Z,16.60
2019-05-11T15:24:30.655Z,16.60
2019-05-11T15:26:58.853Z,16.60
2019-05-11T15:29:28.716Z,16.70
2019-05-11T15:31:57.883Z,16.60
2019-05-11T15:34:28.649Z,16.70
2019-05-11T15:36:58.276Z,16.70
2019-05-11T15:39:28.612Z,16.70
2019-05-11T15:42:09.194Z,16.70
2019-05-11T15:44:28.435Z,16.70
2019-05-11T15:46:58.160Z,16.70
2019-05-11T15:49:28.317Z,16.60
2019-05-11T15:51:57.899Z,16.50
2019-05-11T15:54:28.668Z,16.50
2019-05-11T15:56:59.627Z,16.50
2019-05-11T15:59:27.962Z,16.50
2019-05-11T16:01:58.138Z,16.50
2019-05-11T16:04:27.981Z,16.50
2019-05-11T16:06:57.475Z,16.50
2019-05-11T16:09:25.968Z,16.40
2019-05-11T16:11:54.214Z,16.40
2019-05-11T16:14:22.422Z,16.40
2019-05-11T16:16:54.743Z,16.40
2019-05-11T16:19:23.107Z,16.40
2019-05-11T16:21:51.379Z,16.40
2019-05-11T16:24:23.050Z,16.40
2019-05-11T16:26:58.178Z,16.50
2019-05-11T16:29:27.931Z,16.50
2019-05-11T16:31:54.929Z,16.40
2019-05-11T16:34:23.147Z,16.40
2019-05-11T16:36:51.350Z,16.50
2019-05-11T16:39:19.617Z,16.40
2019-05-11T16:41:48.626Z,16.50
2019-05-11T16:44:18.453Z,16.50
2019-05-11T16:46:59.004Z,16.40
2019-05-11T16:49:31.752Z,16.40
2019-05-11T16:51:57.309Z,16.40
2019-05-11T16:54:27.864Z,16.40
2019-05-11T16:56:57.753Z,16.30
2019-05-11T16:59:25.412Z,16.30
2019-05-11T17:35:24.918Z,15.70
2019-05-11T17:37:53.215Z,15.60
2019-05-11T17:40:23.486Z,15.60
2019-05-11T17:42:53.828Z,15.50
2019-05-11T17:45:24.189Z,15.40
2019-05-11T17:47:52.484Z,15.40
2019-05-11T17:50:20.726Z,15.30
2019-05-11T17:52:48.969Z,15.30
2019-05-11T17:55:18.440Z,15.20
2019-05-11T17:57:49.517Z,15.20
2019-05-11T18:00:17.077Z,15.10
2019-05-11T18:02:45.385Z,15.10
2019-05-11T18:05:13.603Z,15.00
2019-05-11T18:07:42.472Z,15.00
2019-05-11T18:10:10.793Z,14.90
2019-05-11T18:12:39.284Z,14.90
2019-05-11T18:15:08.320Z,14.80
2019-05-11T18:17:36.901Z,14.70
2019-05-11T18:20:16.853Z,14.70
2019-05-11T18:22:38.974Z,14.70
2019-05-11T18:25:08.647Z,14.60
2019-05-11T18:27:38.628Z,14.50
2019-05-11T18:30:08.730Z,14.50
2019-05-11T18:32:39.536Z,14.40
2019-05-11T18:35:08.420Z,14.40
2019-05-11T18:37:38.928Z,14.40
2019-05-11T18:40:07.421Z,14.40
2019-05-11T18:42:38.086Z,14.40
2019-05-11T18:45:08.240Z,14.40
2019-05-11T18:47:38.277Z,14.40
2019-05-11T18:50:07.502Z,14.30
2019-05-11T18:52:35.880Z,14.30
2019-05-11T18:55:04.976Z,14.30
2019-05-11T18:57:33.219Z,14.30
2019-05-11T19:00:01.511Z,14.40
2019-05-11T19:02:29.880Z,14.40
2019-05-11T19:04:58.229Z,14.40
2019-05-11T19:07:28.280Z,14.40
2019-05-11T19:09:57.763Z,14.40
2019-05-11T19:12:27.927Z,14.40
2019-05-11T19:14:58.544Z,14.40
2019-05-11T19:17:29.098Z,14.30
2019-05-11T19:19:58.008Z,14.40
2019-05-11T19:22:28.729Z,14.30
2019-05-11T19:24:58.220Z,14.20
2019-05-11T19:27:28.653Z,14.20
2019-05-11T19:29:56.900Z,14.20
2019-05-11T19:32:25.310Z,14.10
2019-05-11T19:34:53.691Z,14.10
2019-05-11T19:37:21.932Z,14.00
2019-05-11T19:39:50.863Z,13.90
2019-05-11T19:42:19.279Z,13.90
2019-05-11T19:44:48.046Z,13.80
2019-05-11T19:47:18.075Z,13.70
2019-05-11T19:49:47.850Z,13.70
2019-05-11T19:52:17.839Z,13.70
2019-05-11T19:54:48.658Z,13.70
2019-05-11T19:57:17.879Z,13.60
2019-05-11T19:59:48.073Z,13.50
2019-05-11T20:02:17.828Z,13.50
2019-05-11T20:04:48.090Z,13.50
2019-05-11T20:07:18.302Z,13.50
2019-05-11T20:09:46.510Z,13.40
2019-05-11T20:12:14.737Z,13.30
2019-05-11T20:14:42.968Z,13.30
2019-05-11T20:17:11.222Z,13.30
2019-05-11T20:19:39.662Z,13.30
2019-05-11T20:22:08.030Z,13.30
2019-05-11T20:24:36.270Z,13.20
2019-05-11T20:27:04.517Z,13.10
2019-05-11T20:29:32.736Z,13.20
2019-05-11T20:32:00.972Z,13.10
2019-05-11T20:34:29.579Z,13.10
2019-05-11T20:36:58.671Z,13.10
2019-05-11T20:39:28.718Z,13.00
2019-05-11T20:41:58.145Z,13.00
2019-05-11T20:44:28.659Z,13.00
2019-05-11T20:46:58.003Z,12.80
2019-05-11T20:49:28.245Z,12.80
2019-05-11T20:51:58.015Z,12.70
2019-05-11T20:54:28.154Z,12.70
2019-05-11T20:56:58.420Z,12.70
2019-05-11T20:59:28.734Z,12.60
2019-05-11T21:01:58.594Z,12.50
2019-05-11T21:04:28.270Z,12.50
2019-05-11T21:06:57.949Z,12.50
2019-05-11T21:09:28.762Z,12.50
2019-05-11T21:11:58.634Z,12.40
2019-05-11T21:14:28.608Z,12.30
2019-05-11T21:16:58.586Z,12.30
2019-05-11T21:19:28.305Z,12.30
2019-05-11T21:21:59.026Z,12.30
2019-05-11T21:24:28.111Z,12.20
2019-05-11T21:26:58.477Z,12.10
2019-05-11T21:29:28.187Z,12.10
2019-05-11T21:31:58.748Z,12.00
2019-05-11T21:34:27.935Z,11.90
2019-05-11T21:36:56.483Z,11.90
2019-05-11T21:39:24.683Z,11.90
2019-05-11T21:41:52.969Z,11.90
2019-05-11T21:44:21.318Z,11.90
2019-05-11T21:46:49.558Z,12.00
2019-05-11T21:49:18.472Z,11.90
2019-05-11T21:51:49.392Z,11.90
2019-05-11T21:54:17.005Z,11.90
2019-05-11T21:56:45.279Z,11.80
2019-05-11T21:59:13.520Z,11.70
2019-05-11T22:01:41.780Z,11.70
2019-05-11T22:04:11.249Z,11.60
2019-05-11T22:06:39.778Z,11.60
2019-05-11T22:09:09.607Z,11.50
2019-05-11T22:11:38.179Z,11.40
2019-05-11T22:14:08.256Z,11.40
2019-05-11T22:16:38.753Z,11.40
2019-05-11T22:19:08.952Z,11.40
2019-05-11T22:21:37.044Z,11.40
2019-05-11T22:24:05.285Z,11.30
2019-05-11T22:26:33.504Z,11.20
2019-05-11T22:29:01.722Z,11.10
2019-05-11T22:31:30.052Z,11.10
2019-05-11T22:33:58.436Z,11.10
2019-05-11T22:36:28.206Z,11.00
2019-05-11T22:38:58.841Z,11.00
2019-05-11T22:41:26.718Z,10.90
2019-05-11T22:43:54.934Z,10.90
2019-05-11T22:46:23.190Z,10.80
2019-05-11T22:48:51.472Z,10.80
2019-05-11T22:51:19.674Z,10.70
2019-05-11T22:53:50.239Z,10.70
2019-05-11T22:56:19.933Z,10.70
2019-05-11T22:58:49.881Z,10.70
2019-05-11T23:01:18.773Z,10.70
2019-05-11T23:03:47.552Z,10.70
2019-05-11T23:06:18.018Z,10.60
2019-05-11T23:08:48.348Z,10.60
2019-05-11T23:11:17.906Z,10.50
2019-05-11T23:13:47.845Z,10.40
2019-05-11T23:16:17.954Z,10.40
2019-05-11T23:18:47.915Z,10.40
2019-05-11T23:21:15.956Z,10.30
2019-05-11T23:23:44.177Z,10.30
2019-05-11T23:26:12.842Z,10.20
2019-05-11T23:28:41.071Z,10.20
2019-05-11T23:31:09.288Z,10.10
2019-05-11T23:33:38.429Z,10.10
2019-05-11T23:36:07.813Z,10.10
2019-05-11T23:38:38.495Z,10.00
2019-05-11T23:41:08.149Z,10.00
2019-05-11T23:43:37.903Z,9.90
2019-05-11T23:46:07.918Z,9.90
2019-05-11T23:48:38.407Z,9.90
2019-05-11T23:51:08.577Z,9.90
2019-05-11T23:53:35.807Z,9.80
2019-05-11T23:56:04.155Z,9.80
2019-05-11T23:58:32.336Z,9.80
